Pagrindinis puslapis
METAR-TAF:

METAR-TAF

Oro uostai :

Kiutahija, Turkija

platuma: 39-06-41N, ilguma: 30-07-48E, Aukštis: 1013 m

METAR: trūkstamas

Laikas: 01:35 (22:35 UTC)

Prognozė

Ataskaita buvo paskelbta 2 valandos ir 55 minutes, ne 19:40 UTC
Prognozė galioja nuo 17 metu 21 UTC su 18 metu 06 UTC
Vėjas 2 kt nuo kintamojo kryptimis
Matomumas 10 km arba daugiau
nėra debesų žemiau 1500 m ir nėra kamuolinių lietaus debesų

TAF: LTBZ 171940Z 1721/1806 VRB02KT CAVOK

Orai ataskaitas ir orų prognozės (METAR, TAF).

turimą stotys yra geltonos ir raudonos taškus žemėlapyje.

Perkelti pele per norėdami pamatyti stoties vardą.

Tada spustelėkite, norėdami matyti oro stebėjimo ir prognozės.

Norėdami pakeisti žemėlapį: spustelėkite ant žalios mygtukų su juodo kryžiaus žemyn,; žalią mygtuką su brūkšneliu, jei norite nutolinti; arba žalių rodyklių gretimoms žemėlapius.


METAR-TAF: